Kendall, MI (49062)

3:51 PM EDT on September 02, 2015 (GMT -0400)
Gobles | | Change Station
CLOSE
Current Station
Personal Weather Station
Location: Gobles, MI
Elevation: 860 ft
Nearby Weather Stations

Elev 860 ft 42.40 °N, 85.82 °W | Updated 6 minutes ago

Clear
Clear
87.8 °F
Feels Like 101 °F
N
2.7
Wind Variable Wind from SW

Today
High -- | Low -- °F
--% Chance of Precip.
Yesterday
High -- | Low -- °F
Precip. -- in
7:09 AM 8:15 PM
Waning Gibbous, 78% visible
Pressure 30.02 in
Visibility 10.0 miles
Clouds Few 5000 ft
Heat Index 101 °F
Dew Point 78 °F
Humidity 72%
Rainfall 0.00 in
Snow Depth Not available.
UV 8 out of 12
Pollen 10.40 out of 12
Air Quality Not available.
Flu Activity Not available.
METAR KAZO 021853Z 30009KT 10SM FEW050 31/21 A3003 RMK AO2 SLP164 T03060206
Pressure 30.02 in
Visibility 10.0 miles
Clouds Few 5000 ft
Heat Index 101 °F
Dew Point 78 °F
Humidity 72%
Rainfall 0.00 in
Snow Depth Not available.
UV 8 out of 12
Pollen 10.40 out of 12
Air Quality Not available.
Flu Activity Not available.
METAR KAZO 021853Z 30009KT 10SM FEW050 31/21 A3003 RMK AO2 SLP164 T03060206

10-Day Weather Forecast

×

Almanac

Astronomy

Sep. 02, 2015 Rise Set
Actual Time
Civil Twilight
Nautical Twilight
Astronomical Twilight
Moon
Length of Visible Light
Length of Day
Tomorrow will be .
, % of the Moon is Illuminated

Today's Extremes

State Highs State Lows

Community

WunderPhotos

Upload Photos

1,851,801 photos uploaded!

WunderBlogs® & News

Nearby

Air Quality

  Air Quality AQ Index Pollutant
Not available.

Snow Depth

Station Depth Elevation

Earthquake Activity

City Distance Mag. Time & Date
Minimum magnitude displayed is 2.5.

Coastal Water Temperatures

Place Temperature

Stations

Nearby Weather Stations

Station Location Temp. Windchill Dew Point Humidity Wind Precip. Elev Updated Type